Airfield :
LOGIN :

Register | Disclaimer

   EN    FR    IT 

 










Legend :    VFR   Marginal VFR   IFR   Intensive IFR   Very Intensive IFR
Visi :
Ceiling :
>= 8 km
>= 3000ft
5 to 8 km
1000 to 3000 ft
1500m to 5 km
500 to 1000 ft
800 to 1500m
200 to 500 ft
< 800m
< 200 ft
Symbols :   Thunderstorms  Fog  Heavy snow  Heavy precipitations  Wind > 20 kt
SIGMETs :     Misc.  Thunderstorms  Icing  Turbulence  Mountain Waves  Volcanic Ashes






- Airport Elevation : 141 ft
- IATA code : TGD


LYPG - Podgorica - Montenegro

CURRENT METAR :
  • 251800Z 33003KT 1000 R18/1000D R36/1300D -RA BR FEW010 BKN033 OVC080 08/08 Q1026 TEMPO 0700 -RA FG

EXPIRED METARs :
  • 251730Z 36002KT 1500 -RA BR FEW010 BKN033 OVC080 08/08 Q1026 TEMPO 1000
  • 251700Z 00000KT 1500 R18/1400D R36/1800U -RA BR FEW010 BKN033 OVC080 08/08 Q1026 TEMPO 1000
  • 251630Z 34002KT 2000 -RA BR FEW020 SCT033 BKN080 08/08 Q1025 TEMPO 1000
  • 251600Z 34002KT 2000 -RA BR FEW020 SCT033 BKN080 08/08 Q1025 NOSIG
  • 251530Z VRB01KT 2000 -RA BR FEW020 SCT033 BKN080 08/08 Q1026 NOSIG

TAF TAF LYPG
Valid from the 25 at 18:00 until the 26 at 18:00 UTC


251700Z 2518/2618 15006KT 6000 FEW020 SCT030 BKN050 TX10/2613Z TN06/2606Z
TEMPO 2518/2618 2000 -RA BR
PROB40
TEMPO 2518/2521 0700 -RA FG



MET'MAP, your aeronautical weather chart ! - Copyright ORBIFLY December 2007 - Disclaimer

ORBIFLY MET'MAP TEAM :

Programming & Development : Alexandra Zaïnal
Concept & original design : Baudouin d'Aumeries
Assistance for programming : Marc-Olivier Méhu
Technical & hardware support : Manuel Goepfert

Contact : metmap@orbifly.com




SOURCES & CREDITS :

   NOAA